createdAt,value
2019-05-29T00:00:25.374Z,1.13
2019-05-29T00:02:37.287Z,1.00
2019-05-29T00:04:42.546Z,1.17
2019-05-29T00:06:46.984Z,1.20
2019-05-29T00:08:51.437Z,1.53
2019-05-29T00:10:55.901Z,1.47
2019-05-29T00:13:00.440Z,1.23
2019-05-29T00:15:06.126Z,1.00
2019-05-29T00:17:10.673Z,1.00
2019-05-29T00:19:15.169Z,0.73
2019-05-29T00:21:19.715Z,1.63
2019-05-29T00:23:24.743Z,1.43
2019-05-29T00:25:29.432Z,1.10
2019-05-29T00:27:33.949Z,1.00
2019-05-29T00:29:38.278Z,1.20
2019-05-29T00:31:43.065Z,1.30
2019-05-29T00:33:47.946Z,1.10
2019-05-29T00:35:54.067Z,1.30
2019-05-29T00:37:59.747Z,1.00
2019-05-29T00:40:04.392Z,1.23
2019-05-29T00:42:08.973Z,1.53
2019-05-29T00:44:15.664Z,0.90
2019-05-29T00:46:20.064Z,1.23
2019-05-29T00:48:24.494Z,1.40
2019-05-29T00:50:29.253Z,1.90
2019-05-29T00:52:33.624Z,1.17
2019-05-29T00:54:37.968Z,1.20
2019-05-29T00:56:44.285Z,1.33
2019-05-29T00:58:48.779Z,1.40
2019-05-29T01:00:53.639Z,1.20
2019-05-29T01:02:58.047Z,1.47
2019-05-29T01:05:02.573Z,0.80
2019-05-29T01:07:07.004Z,1.33
2019-05-29T01:09:12.728Z,1.40
2019-05-29T01:11:17.235Z,1.40
2019-05-29T01:13:21.920Z,1.30
2019-05-29T01:15:26.778Z,1.43
2019-05-29T01:17:31.737Z,1.80
2019-05-29T01:19:37.012Z,1.30
2019-05-29T01:21:42.013Z,1.30
2019-05-29T01:23:46.681Z,1.50
2019-05-29T01:25:51.146Z,1.93
2019-05-29T01:27:55.517Z,1.60
2019-05-29T01:30:00.529Z,1.20
2019-05-29T01:32:04.983Z,1.40
2019-05-29T01:34:09.718Z,1.60
2019-05-29T01:36:14.081Z,1.50
2019-05-29T01:38:19.843Z,1.60
2019-05-29T01:40:27.869Z,1.37
2019-05-29T01:42:30.868Z,1.73
2019-05-29T01:44:35.566Z,1.80
2019-05-29T01:46:40.236Z,1.50
2019-05-29T01:48:44.887Z,1.70
2019-05-29T01:50:49.278Z,1.50
2019-05-29T01:52:53.781Z,1.53
2019-05-29T01:54:58.247Z,1.70
2019-05-29T01:57:03.130Z,1.50
2019-05-29T01:59:07.526Z,1.27
2019-05-29T02:01:12.085Z,1.30
2019-05-29T02:03:17.720Z,1.87
2019-05-29T02:05:22.505Z,1.70
2019-05-29T02:07:28.285Z,2.17
2019-05-29T02:09:32.742Z,1.40
2019-05-29T02:11:37.103Z,1.67
2019-05-29T02:13:41.537Z,1.80
2019-05-29T02:15:46.200Z,2.07
2019-05-29T02:17:50.621Z,1.57
2019-05-29T02:19:55.094Z,2.00
2019-05-29T02:21:59.556Z,2.57
2019-05-29T02:24:04.083Z,1.53
2019-05-29T02:26:08.540Z,2.07
2019-05-29T02:28:12.904Z,1.77
2019-05-29T02:30:20.379Z,2.63
2019-05-29T02:32:25.532Z,2.27
2019-05-29T02:34:30.125Z,1.23
2019-05-29T02:39:39.300Z,1.70
2019-05-29T02:41:43.690Z,1.83
2019-05-29T02:43:48.190Z,2.37
2019-05-29T02:45:55.046Z,1.70
2019-05-29T02:47:59.038Z,1.77
2019-05-29T02:50:04.166Z,2.27
2019-05-29T02:52:08.577Z,2.10
2019-05-29T02:54:13.363Z,2.13
2019-05-29T02:56:17.897Z,2.60
2019-05-29T02:58:24.062Z,1.90
2019-05-29T03:00:52.879Z,2.30
2019-05-29T03:02:57.688Z,1.90
2019-05-29T03:05:02.685Z,1.97
2019-05-29T03:07:08.507Z,2.67
2019-05-29T03:09:13.861Z,2.23
2019-05-29T03:11:19.681Z,2.43
2019-05-29T03:13:25.473Z,1.83
2019-05-29T03:15:31.597Z,2.30
2019-05-29T03:17:36.473Z,2.23
2019-05-29T03:19:41.331Z,2.07
2019-05-29T03:21:47.424Z,1.90
2019-05-29T03:23:52.570Z,2.03
2019-05-29T03:25:57.658Z,2.03
2019-05-29T03:28:03.309Z,2.00
2019-05-29T03:30:08.771Z,2.17
2019-05-29T03:32:14.544Z,2.43
2019-05-29T03:34:20.380Z,2.20
2019-05-29T03:36:28.374Z,2.30
2019-05-29T03:38:32.645Z,2.03
2019-05-29T03:40:38.864Z,2.07
2019-05-29T03:42:44.323Z,2.23
2019-05-29T03:44:49.773Z,2.67
2019-05-29T03:46:56.771Z,2.27
2019-05-29T03:49:02.033Z,2.87
2019-05-29T03:51:07.087Z,2.07
2019-05-29T03:53:11.783Z,2.07
2019-05-29T03:55:17.837Z,2.57
2019-05-29T03:57:22.578Z,2.23
2019-05-29T03:59:28.581Z,2.90
2019-05-29T04:01:33.837Z,2.57
2019-05-29T04:03:39.785Z,2.53
2019-05-29T04:05:44.492Z,2.60
2019-05-29T04:07:49.124Z,2.23
2019-05-29T04:09:54.605Z,2.63
2019-05-29T04:11:59.354Z,2.70
2019-05-29T04:14:04.131Z,2.30
2019-05-29T04:16:09.806Z,2.17
2019-05-29T04:18:20.423Z,2.70
2019-05-29T04:20:27.403Z,2.90
2019-05-29T04:22:38.445Z,2.20
2019-05-29T04:24:43.473Z,2.50
2019-05-29T04:26:49.990Z,2.90
2019-05-29T04:28:55.463Z,2.70
2019-05-29T04:31:03.756Z,2.80
2019-05-29T04:33:08.457Z,2.80
2019-05-29T04:35:13.401Z,2.67
2019-05-29T04:37:20.649Z,2.07
2019-05-29T04:39:25.310Z,2.70
2019-05-29T04:41:30.915Z,3.03
2019-05-29T04:43:37.417Z,2.40
2019-05-29T04:45:42.553Z,2.60
2019-05-29T04:47:48.036Z,2.87
2019-05-29T04:49:53.414Z,2.60
2019-05-29T04:51:58.315Z,2.27
2019-05-29T04:54:02.910Z,3.47
2019-05-29T04:56:11.285Z,3.10
2019-05-29T04:58:17.723Z,3.57
2019-05-29T05:00:22.325Z,2.30
2019-05-29T05:02:28.913Z,3.30
2019-05-29T05:04:33.392Z,3.03
2019-05-29T05:06:37.911Z,3.30
2019-05-29T05:08:42.407Z,3.20
2019-05-29T05:10:46.924Z,2.83
2019-05-29T05:12:51.354Z,3.43
2019-05-29T05:14:56.169Z,3.53
2019-05-29T05:17:01.470Z,3.20
2019-05-29T05:19:06.001Z,3.50
2019-05-29T05:21:10.506Z,3.60
2019-05-29T05:23:15.302Z,3.60
2019-05-29T05:25:20.041Z,3.73
2019-05-29T05:27:25.455Z,3.70
2019-05-29T05:29:30.157Z,3.00
2019-05-29T05:31:34.920Z,3.33
2019-05-29T05:33:40.685Z,3.73
2019-05-29T05:35:45.315Z,3.47
2019-05-29T05:37:50.800Z,3.40
2019-05-29T05:39:55.242Z,3.60
2019-05-29T05:42:00.715Z,3.97
2019-05-29T05:44:05.823Z,3.00
2019-05-29T05:46:10.257Z,3.23
2019-05-29T05:48:14.729Z,3.90
2019-05-29T05:50:19.832Z,3.60
2019-05-29T05:52:24.423Z,3.67
2019-05-29T05:54:29.415Z,3.33
2019-05-29T05:56:33.773Z,3.50
2019-05-29T05:58:38.146Z,3.40
2019-05-29T06:00:42.602Z,3.30
2019-05-29T06:02:47.019Z,3.60
2019-05-29T06:04:51.733Z,3.23
2019-05-29T06:06:56.298Z,2.87
2019-05-29T06:09:00.689Z,2.50
2019-05-29T06:11:05.187Z,2.70
2019-05-29T06:13:09.610Z,2.83
2019-05-29T06:15:14.027Z,3.47
2019-05-29T06:17:21.788Z,2.70
2019-05-29T06:19:24.561Z,2.70
2019-05-29T06:21:29.021Z,3.07
2019-05-29T06:23:34.685Z,2.80
2019-05-29T06:25:40.689Z,2.30
2019-05-29T06:27:45.960Z,1.93
2019-05-29T06:29:51.051Z,1.80
2019-05-29T06:31:55.601Z,1.80
2019-05-29T06:33:59.937Z,1.43
2019-05-29T06:36:04.463Z,1.10
2019-05-29T06:38:09.330Z,1.77
2019-05-29T06:40:18.405Z,1.53
2019-05-29T06:42:24.070Z,1.10
2019-05-29T06:44:28.587Z,1.17
2019-05-29T06:46:34.341Z,1.10
2019-05-29T06:48:46.232Z,1.27
2019-05-29T06:50:44.871Z,1.17
2019-05-29T06:52:49.553Z,1.40
2019-05-29T06:54:54.156Z,1.17
2019-05-29T06:56:58.829Z,1.10
2019-05-29T06:59:03.499Z,3.67
2019-05-29T07:01:07.955Z,1.30
2019-05-29T07:03:12.336Z,1.00
2019-05-29T07:05:17.237Z,1.10
2019-05-29T07:07:21.636Z,1.67
2019-05-29T07:09:26.061Z,1.23
2019-05-29T07:11:30.520Z,1.50
2019-05-29T07:13:36.124Z,1.77
2019-05-29T07:15:42.814Z,1.50
2019-05-29T07:17:47.411Z,1.50
2019-05-29T07:20:00.420Z,1.27
2019-05-29T07:21:57.855Z,1.10
2019-05-29T07:24:02.542Z,1.50
2019-05-29T07:26:07.025Z,1.90
2019-05-29T07:28:11.355Z,1.70
2019-05-29T07:30:16.026Z,1.47
2019-05-29T07:32:20.554Z,2.03
2019-05-29T07:34:24.899Z,1.50
2019-05-29T07:36:29.308Z,1.30
2019-05-29T07:38:33.691Z,2.10
2019-05-29T07:40:38.491Z,1.93
2019-05-29T07:42:50.119Z,1.20
2019-05-29T07:44:50.558Z,1.90
2019-05-29T07:46:55.321Z,1.87
2019-05-29T07:49:00.083Z,1.70
2019-05-29T07:51:07.257Z,1.50
2019-05-29T07:53:10.904Z,1.70
2019-05-29T07:55:16.230Z,1.60
2019-05-29T07:57:20.643Z,1.60
2019-05-29T07:59:24.987Z,1.13
2019-05-29T08:01:30.576Z,1.03
2019-05-29T08:03:35.264Z,1.03
2019-05-29T08:05:39.634Z,1.57
2019-05-29T08:07:45.463Z,1.43
2019-05-29T08:09:50.313Z,0.90
2019-05-29T08:11:54.817Z,0.63
2019-05-29T08:13:59.283Z,1.47
2019-05-29T08:16:03.807Z,1.00
2019-05-29T08:18:08.308Z,0.90
2019-05-29T08:20:13.074Z,0.90
2019-05-29T08:22:33.228Z,1.20
2019-05-29T08:24:24.854Z,0.97
2019-05-29T08:26:29.474Z,0.70
2019-05-29T08:28:34.048Z,1.03
2019-05-29T08:30:38.593Z,1.17
2019-05-29T08:32:43.579Z,0.90
2019-05-29T08:34:49.080Z,1.10
2019-05-29T08:37:05.924Z,1.03
2019-05-29T08:38:59.643Z,1.10
2019-05-29T08:41:21.061Z,1.60
2019-05-29T08:43:25.475Z,1.13
2019-05-29T08:45:30.746Z,1.07
2019-05-29T08:47:35.138Z,1.00
2019-05-29T08:49:39.563Z,0.90
2019-05-29T08:51:43.958Z,1.00
2019-05-29T08:53:48.889Z,1.03
2019-05-29T08:55:53.647Z,0.80
2019-05-29T08:57:58.382Z,0.70
2019-05-29T09:00:03.187Z,1.10
2019-05-29T09:02:08.753Z,0.90
2019-05-29T09:04:13.187Z,1.27
2019-05-29T09:06:17.868Z,0.70
2019-05-29T09:08:22.736Z,0.70
2019-05-29T09:10:27.255Z,0.73
2019-05-29T09:12:31.806Z,1.00
2019-05-29T09:14:36.528Z,1.20
2019-05-29T09:16:41.164Z,0.90
2019-05-29T09:18:45.789Z,1.30
2019-05-29T09:21:02.719Z,0.97
2019-05-29T09:22:57.195Z,0.70
2019-05-29T09:25:01.879Z,0.80
2019-05-29T09:27:07.062Z,1.20
2019-05-29T09:29:15.211Z,1.10
2019-05-29T09:31:18.652Z,0.70
2019-05-29T09:33:26.371Z,0.70
2019-05-29T09:35:30.782Z,0.80
2019-05-29T09:37:35.582Z,1.00
2019-05-29T09:39:39.955Z,0.80
2019-05-29T09:41:44.458Z,1.17
2019-05-29T09:43:58.621Z,1.30
2019-05-29T09:45:55.167Z,0.90
2019-05-29T09:47:59.609Z,0.87
2019-05-29T09:50:04.294Z,0.77
2019-05-29T09:52:08.942Z,0.87
2019-05-29T09:54:13.341Z,0.70
2019-05-29T09:56:18.223Z,0.70
2019-05-29T09:58:22.716Z,0.60
2019-05-29T10:00:27.259Z,0.73
2019-05-29T10:02:31.736Z,0.90
2019-05-29T10:04:36.180Z,0.97
2019-05-29T10:06:40.631Z,0.70
2019-05-29T10:08:45.066Z,1.10
2019-05-29T10:10:49.424Z,0.73
2019-05-29T10:12:55.250Z,0.93
2019-05-29T10:15:01.023Z,1.00
2019-05-29T10:17:11.760Z,0.90
2019-05-29T10:19:13.043Z,1.00
2019-05-29T10:21:17.716Z,0.67
2019-05-29T10:23:22.114Z,0.90
2019-05-29T10:25:26.542Z,0.80
2019-05-29T10:27:31.026Z,0.87
2019-05-29T10:29:35.385Z,0.70
2019-05-29T10:31:39.952Z,0.90
2019-05-29T10:33:46.075Z,0.73
2019-05-29T10:35:53.344Z,1.00
2019-05-29T10:37:58.876Z,0.80
2019-05-29T10:40:03.296Z,1.77
2019-05-29T10:42:07.709Z,0.90
2019-05-29T10:44:13.055Z,0.67
2019-05-29T10:46:18.498Z,0.80
2019-05-29T10:48:22.869Z,0.50
2019-05-29T10:50:27.247Z,0.70
2019-05-29T10:52:31.692Z,0.80
2019-05-29T10:54:39.117Z,0.57
2019-05-29T10:56:42.512Z,0.70
2019-05-29T10:58:53.478Z,0.70
2019-05-29T11:00:53.463Z,0.90
2019-05-29T11:02:57.917Z,0.53
2019-05-29T11:05:02.371Z,0.47
2019-05-29T11:07:06.710Z,0.80
2019-05-29T11:09:11.090Z,1.00
2019-05-29T11:11:15.549Z,0.70
2019-05-29T11:13:19.899Z,0.80
2019-05-29T11:15:24.303Z,0.80
2019-05-29T11:17:29.015Z,0.80
2019-05-29T11:19:33.496Z,0.87
2019-05-29T11:21:38.333Z,0.70
2019-05-29T11:23:44.028Z,1.20
2019-05-29T11:25:48.473Z,0.80
2019-05-29T11:27:53.284Z,1.10
2019-05-29T11:29:59.173Z,1.17
2019-05-29T11:32:04.645Z,0.73
2019-05-29T11:34:09.323Z,0.97
2019-05-29T11:36:14.345Z,0.70
2019-05-29T11:38:19.128Z,0.73
2019-05-29T11:40:23.968Z,1.43
2019-05-29T11:42:28.481Z,0.70
2019-05-29T11:44:32.887Z,0.90
2019-05-29T11:46:38.436Z,0.80
2019-05-29T11:48:43.765Z,0.90
2019-05-29T11:50:48.198Z,0.87
2019-05-29T11:52:52.607Z,1.40
2019-05-29T11:54:59.950Z,1.10
2019-05-29T11:57:03.351Z,0.90
2019-05-29T11:59:07.800Z,1.00
2019-05-29T12:01:12.543Z,1.00
2019-05-29T12:03:16.874Z,1.00
2019-05-29T12:05:21.562Z,1.17
2019-05-29T12:07:25.945Z,1.27
2019-05-29T12:09:33.170Z,0.97
2019-05-29T12:11:36.389Z,0.90
2019-05-29T12:13:40.811Z,1.30
2019-05-29T12:15:48.560Z,1.60
2019-05-29T12:17:57.949Z,1.70
2019-05-29T12:19:59.917Z,1.70
2019-05-29T12:22:05.848Z,1.00
2019-05-29T12:24:10.358Z,0.87
2019-05-29T12:26:22.396Z,1.00
2019-05-29T12:28:21.152Z,1.47
2019-05-29T12:30:26.377Z,1.10
2019-05-29T12:32:30.772Z,1.10
2019-05-29T12:34:35.261Z,1.03
2019-05-29T12:36:39.965Z,1.23
2019-05-29T12:38:46.506Z,1.40
2019-05-29T12:40:50.871Z,1.20
2019-05-29T12:42:55.742Z,0.87
2019-05-29T12:45:01.872Z,1.00
2019-05-29T12:47:06.563Z,1.10
2019-05-29T12:49:11.950Z,0.73
2019-05-29T12:51:18.611Z,0.70
2019-05-29T12:53:30.254Z,0.97
2019-05-29T12:55:29.457Z,1.00
2019-05-29T12:57:33.936Z,0.83
2019-05-29T12:59:43.967Z,0.80
2019-05-29T13:01:49.039Z,0.80
2019-05-29T13:03:54.183Z,0.90
2019-05-29T13:06:00.285Z,0.50
2019-05-29T13:08:05.264Z,0.80
2019-05-29T13:10:29.035Z,0.67
2019-05-29T13:12:17.656Z,0.90
2019-05-29T13:14:24.566Z,0.53
2019-05-29T13:16:29.352Z,0.50
2019-05-29T13:18:33.916Z,0.70
2019-05-29T13:20:38.714Z,0.70
2019-05-29T13:22:43.161Z,0.60
2019-05-29T13:24:47.646Z,0.57
2019-05-29T13:26:52.066Z,0.60
2019-05-29T13:28:57.519Z,0.60
2019-05-29T13:31:02.073Z,0.60
2019-05-29T13:33:08.891Z,0.50
2019-05-29T13:35:15.416Z,0.60
2019-05-29T13:37:19.872Z,0.63
2019-05-29T13:39:24.223Z,0.67
2019-05-29T13:41:28.840Z,1.00
2019-05-29T13:43:33.251Z,0.80
2019-05-29T13:45:37.608Z,0.70
2019-05-29T13:47:42.254Z,0.83
2019-05-29T13:49:47.742Z,0.60
2019-05-29T13:51:52.117Z,0.73
2019-05-29T13:54:03.581Z,0.90
2019-05-29T13:56:04.129Z,0.90
2019-05-29T13:58:09.951Z,0.80
2019-05-29T14:00:34.193Z,0.80
2019-05-29T14:02:21.902Z,0.73
2019-05-29T14:04:26.370Z,1.00
2019-05-29T14:06:30.986Z,1.30
2019-05-29T14:08:35.412Z,1.10
2019-05-29T14:10:39.784Z,1.50
2019-05-29T14:12:44.295Z,1.30
2019-05-29T14:14:48.736Z,1.10
2019-05-29T14:16:53.436Z,1.30
2019-05-29T14:18:58.433Z,1.57
2019-05-29T14:21:03.241Z,1.63
2019-05-29T14:23:07.800Z,1.27
2019-05-29T14:25:12.558Z,1.60
2019-05-29T14:27:17.077Z,1.13
2019-05-29T14:29:21.519Z,1.50
2019-05-29T14:31:25.956Z,1.40
2019-05-29T14:33:30.412Z,1.33
2019-05-29T14:35:34.768Z,1.07
2019-05-29T14:37:39.430Z,1.00
2019-05-29T14:39:44.095Z,1.00
2019-05-29T14:41:48.449Z,1.10
2019-05-29T14:43:53.001Z,0.90
2019-05-29T14:45:57.624Z,1.00
2019-05-29T14:48:02.239Z,0.87
2019-05-29T14:50:16.486Z,1.03
2019-05-29T14:52:21.456Z,1.10
2019-05-29T14:54:40.706Z,0.73
2019-05-29T14:56:32.111Z,0.90
2019-05-29T14:58:36.740Z,2.60
2019-05-29T15:00:41.537Z,0.80
2019-05-29T15:02:46.427Z,0.90
2019-05-29T15:04:51.161Z,0.80
2019-05-29T15:06:56.600Z,0.97
2019-05-29T15:09:01.124Z,0.90
2019-05-29T15:11:05.781Z,1.00
2019-05-29T15:13:13.306Z,1.03
2019-05-29T15:15:18.698Z,1.00
2019-05-29T15:17:23.258Z,0.83
2019-05-29T15:19:28.552Z,1.20
2019-05-29T15:21:33.316Z,0.93
2019-05-29T15:23:37.831Z,0.80
2019-05-29T15:25:42.251Z,1.00
2019-05-29T15:27:47.298Z,0.80
2019-05-29T15:29:51.784Z,1.10
2019-05-29T15:31:56.322Z,1.00
2019-05-29T15:34:01.474Z,1.40
2019-05-29T15:36:06.541Z,1.10
2019-05-29T15:38:11.131Z,1.10
2019-05-29T15:40:17.119Z,1.17
2019-05-29T15:42:21.890Z,1.40
2019-05-29T15:44:26.792Z,1.37
2019-05-29T15:46:31.674Z,1.47
2019-05-29T15:48:36.699Z,1.10
2019-05-29T15:50:42.263Z,1.10
2019-05-29T15:52:47.021Z,1.00
2019-05-29T15:54:51.670Z,1.60
2019-05-29T15:56:56.128Z,0.90
2019-05-29T15:59:00.707Z,1.30
2019-05-29T16:01:05.183Z,0.97
2019-05-29T16:03:09.678Z,0.70
2019-05-29T16:05:17.112Z,0.77
2019-05-29T16:07:21.688Z,0.60
2019-05-29T16:09:26.192Z,1.40
2019-05-29T16:11:30.647Z,0.80
2019-05-29T16:13:35.101Z,1.03
2019-05-29T16:15:39.841Z,0.70
2019-05-29T16:17:44.460Z,1.17
2019-05-29T16:19:49.090Z,0.90
2019-05-29T16:21:53.652Z,0.83
2019-05-29T16:23:58.230Z,1.07
2019-05-29T16:26:02.864Z,0.70
2019-05-29T16:28:07.545Z,0.70
2019-05-29T16:30:15.634Z,0.93
2019-05-29T16:32:21.969Z,0.70
2019-05-29T16:34:26.517Z,0.97
2019-05-29T16:36:31.184Z,0.80
2019-05-29T16:38:36.147Z,0.50
2019-05-29T16:40:40.735Z,1.00
2019-05-29T16:42:45.464Z,1.43
2019-05-29T16:44:50.181Z,4.40
2019-05-29T16:46:54.564Z,1.33
2019-05-29T16:48:59.036Z,1.63
2019-05-29T16:51:41.736Z,0.97
2019-05-29T16:53:43.225Z,1.07
2019-05-29T16:55:53.790Z,0.87
2019-05-29T16:57:53.951Z,1.00
2019-05-29T16:59:58.540Z,1.00
2019-05-29T17:02:02.971Z,0.90
2019-05-29T17:04:07.370Z,0.73
2019-05-29T17:06:12.183Z,0.70
2019-05-29T17:08:18.036Z,1.10
2019-05-29T17:10:34.197Z,1.13
2019-05-29T17:12:39.014Z,1.20
2019-05-29T17:14:43.693Z,1.37
2019-05-29T17:16:48.144Z,1.17
2019-05-29T17:18:52.677Z,1.53
2019-05-29T17:21:00.787Z,1.07
2019-05-29T17:23:05.463Z,1.25
2019-05-29T17:25:10.334Z,1.40
2019-05-29T17:27:14.836Z,1.57
2019-05-29T17:29:20.830Z,0.93
2019-05-29T17:31:26.162Z,0.93
2019-05-29T17:33:30.685Z,1.23
2019-05-29T17:35:39.458Z,1.27
2019-05-29T17:37:44.044Z,1.37
2019-05-29T17:39:48.866Z,1.10
2019-05-29T17:41:53.368Z,1.23
2019-05-29T17:44:00.390Z,1.17
2019-05-29T17:46:04.975Z,1.47
2019-05-29T17:48:09.689Z,1.60
2019-05-29T17:50:18.047Z,1.77
2019-05-29T17:52:21.606Z,1.83
2019-05-29T17:54:26.531Z,1.70
2019-05-29T17:56:36.590Z,1.47
2019-05-29T17:58:38.610Z,1.20
2019-05-29T18:00:43.264Z,1.27
2019-05-29T18:02:52.427Z,1.17
2019-05-29T18:04:54.053Z,1.53
2019-05-29T18:06:58.454Z,1.53
2019-05-29T18:09:02.875Z,1.40
2019-05-29T18:11:07.324Z,1.30
2019-05-29T18:13:12.036Z,1.20
2019-05-29T18:15:17.244Z,2.07
2019-05-29T18:17:21.680Z,1.50
2019-05-29T18:19:26.192Z,1.07
2019-05-29T18:21:30.662Z,1.43
2019-05-29T18:23:36.301Z,1.17
2019-05-29T18:25:42.358Z,1.30
2019-05-29T18:27:46.873Z,1.27
2019-05-29T18:29:51.375Z,1.50
2019-05-29T18:31:55.973Z,1.60
2019-05-29T18:34:01.624Z,1.43
2019-05-29T18:36:06.825Z,1.50
2019-05-29T18:38:12.114Z,1.50
2019-05-29T18:40:17.690Z,1.63
2019-05-29T18:42:25.256Z,1.50
2019-05-29T18:44:29.986Z,1.30
2019-05-29T18:46:37.859Z,1.43
2019-05-29T18:48:40.800Z,2.47
2019-05-29T18:50:46.303Z,2.30
2019-05-29T18:52:50.952Z,2.20
2019-05-29T18:55:12.406Z,2.23
2019-05-29T18:57:17.354Z,1.90
2019-05-29T18:59:23.345Z,1.73
2019-05-29T19:01:27.993Z,1.73
2019-05-29T19:03:36.137Z,1.77
2019-05-29T19:05:43.940Z,1.50
2019-05-29T19:07:50.343Z,1.80
2019-05-29T19:09:56.165Z,2.27
2019-05-29T19:12:02.119Z,2.50
2019-05-29T19:14:06.976Z,1.00
2019-05-29T19:16:12.615Z,1.23
2019-05-29T19:18:17.437Z,1.40
2019-05-29T19:20:22.263Z,1.20
2019-05-29T19:22:28.368Z,1.57
2019-05-29T19:24:34.247Z,1.53
2019-05-29T19:26:39.979Z,0.80
2019-05-29T19:28:45.997Z,1.17
2019-05-29T19:30:51.282Z,1.27
2019-05-29T19:32:56.068Z,2.00
2019-05-29T19:35:04.127Z,1.70
2019-05-29T19:37:09.221Z,2.63
2019-05-29T19:39:15.197Z,2.23
2019-05-29T19:41:21.606Z,3.47
2019-05-29T19:43:26.291Z,3.40
2019-05-29T19:45:32.516Z,3.47
2019-05-29T19:47:37.137Z,3.70
2019-05-29T19:49:42.388Z,5.57
2019-05-29T19:51:47.697Z,4.00
2019-05-29T19:53:52.947Z,4.17
2019-05-29T19:55:58.095Z,3.50
2019-05-29T19:58:03.457Z,3.53
2019-05-29T20:00:10.426Z,2.60
2019-05-29T20:02:18.020Z,3.53
2019-05-29T20:04:23.148Z,3.07
2019-05-29T20:06:28.851Z,3.37
2019-05-29T20:08:37.774Z,3.53
2019-05-29T20:10:43.167Z,5.10
2019-05-29T20:12:48.840Z,5.07
2019-05-29T20:14:55.235Z,4.07
2019-05-29T20:17:01.728Z,6.17
2019-05-29T20:19:06.740Z,5.23
2019-05-29T20:21:13.691Z,6.20
2019-05-29T20:23:19.881Z,4.17
2019-05-29T20:25:25.081Z,3.97
2019-05-29T20:27:30.370Z,4.03
2019-05-29T20:29:36.426Z,3.50
2019-05-29T20:31:42.872Z,3.60
2019-05-29T20:33:47.853Z,3.97
2019-05-29T20:35:58.078Z,3.00
2019-05-29T20:38:06.646Z,3.23
2019-05-29T20:40:14.123Z,2.97
2019-05-29T20:42:21.283Z,3.17
2019-05-29T20:44:32.555Z,2.20
2019-05-29T20:46:38.735Z,2.20
2019-05-29T20:48:43.310Z,2.10
2019-05-29T20:50:48.001Z,2.17
2019-05-29T20:52:54.575Z,2.10
2019-05-29T20:55:01.608Z,2.73
2019-05-29T20:57:12.363Z,2.13
2019-05-29T20:59:19.368Z,3.90
2019-05-29T21:01:24.861Z,3.07
2019-05-29T21:03:29.370Z,3.40
2019-05-29T21:05:36.604Z,2.93
2019-05-29T21:07:41.252Z,3.67
2019-05-29T21:09:45.717Z,3.20
2019-05-29T21:11:50.135Z,3.20
2019-05-29T21:13:59.005Z,3.00
2019-05-29T21:16:04.449Z,2.60
2019-05-29T21:18:08.887Z,2.97
2019-05-29T21:20:13.919Z,3.53
2019-05-29T21:22:18.531Z,3.00
2019-05-29T21:24:23.192Z,3.43
2019-05-29T21:26:27.800Z,3.10
2019-05-29T21:28:40.889Z,3.23
2019-05-29T21:30:39.933Z,3.70
2019-05-29T21:32:45.907Z,3.30
2019-05-29T21:34:50.636Z,2.97
2019-05-29T21:36:56.145Z,2.40
2019-05-29T21:39:01.186Z,2.60
2019-05-29T21:41:05.944Z,2.50
2019-05-29T21:43:10.887Z,3.00
2019-05-29T21:45:16.069Z,2.40
2019-05-29T21:47:21.199Z,3.13
2019-05-29T21:49:31.018Z,2.77
2019-05-29T21:51:33.741Z,2.67
2019-05-29T21:53:39.274Z,2.40
2019-05-29T21:55:43.881Z,1.97
2019-05-29T21:57:50.350Z,3.00
2019-05-29T21:59:54.975Z,2.57
2019-05-29T22:02:00.787Z,2.47
2019-05-29T22:04:05.620Z,2.40
2019-05-29T22:06:10.254Z,2.67
2019-05-29T22:08:15.091Z,2.70
2019-05-29T22:10:20.519Z,2.33
2019-05-29T22:12:25.682Z,1.93
2019-05-29T22:14:30.655Z,2.60
2019-05-29T22:16:35.287Z,2.67
2019-05-29T22:18:39.783Z,1.87
2019-05-29T22:20:44.724Z,2.20
2019-05-29T22:22:49.339Z,2.70
2019-05-29T22:24:55.124Z,2.47
2019-05-29T22:26:59.718Z,2.63
2019-05-29T22:29:17.399Z,2.80
2019-05-29T22:31:10.593Z,2.90
2019-05-29T22:33:14.993Z,2.20
2019-05-29T22:35:19.773Z,2.20
2019-05-29T22:37:24.552Z,1.90
2019-05-29T22:39:29.858Z,2.30
2019-05-29T22:41:34.483Z,2.50
2019-05-29T22:43:38.957Z,2.00
2019-05-29T22:45:43.429Z,2.57
2019-05-29T22:47:47.916Z,2.43
2019-05-29T22:49:53.701Z,2.10
2019-05-29T22:51:58.449Z,1.67
2019-05-29T22:54:02.890Z,2.47
2019-05-29T22:56:07.247Z,2.40
2019-05-29T22:58:11.640Z,2.43
2019-05-29T23:00:16.955Z,2.20
2019-05-29T23:02:22.770Z,2.73
2019-05-29T23:04:27.301Z,2.20
2019-05-29T23:06:35.748Z,2.60
2019-05-29T23:08:42.526Z,3.00
2019-05-29T23:10:48.718Z,2.20
2019-05-29T23:12:54.409Z,2.60
2019-05-29T23:15:00.565Z,2.57
2019-05-29T23:17:05.335Z,2.07
2019-05-29T23:19:10.224Z,2.53
2019-05-29T23:21:14.641Z,2.70
2019-05-29T23:23:19.155Z,2.70
2019-05-29T23:25:23.632Z,2.33
2019-05-29T23:27:28.834Z,2.33
2019-05-29T23:29:48.008Z,2.30
2019-05-29T23:31:39.672Z,2.63
2019-05-29T23:33:44.046Z,2.10
2019-05-29T23:35:48.393Z,2.33
2019-05-29T23:37:53.500Z,2.47
2019-05-29T23:39:57.899Z,2.70
2019-05-29T23:42:03.705Z,3.33
2019-05-29T23:44:08.217Z,2.30
2019-05-29T23:46:12.636Z,3.50
2019-05-29T23:48:17.043Z,2.00
2019-05-29T23:50:21.461Z,2.30
2019-05-29T23:52:25.885Z,2.27
2019-05-29T23:54:30.425Z,2.70
2019-05-29T23:56:35.877Z,2.37
2019-05-29T23:58:40.665Z,2.20
